Time;durP1;ratioP1;P1;durP2;ratioP2;P2;SDS_P1;SDS_P2;PMS_P1;PMS_P2;Temp;Humidity;BMP_temperature;BMP_pressure;BME280_temperature;BME280_humidity;BME280_pressure;Samples;Min_cycle;Max_cycle;Signal;HPM_P1;HPM_P2
2022/03/23 00:00:18;;;;;;;80.40;38.40;;;;;;;1.75;49.50;101964.10;105568;1274;25622;-54
2022/03/23 00:03:10;;;;;;;72.90;33.80;;;;;;;1.70;49.53;101960.27;105476;1276;26251;-57
2022/03/23 00:05:42;;;;;;;75.90;35.30;;;;;;;1.66;49.59;101963.55;105675;1275;22704;-58
2022/03/23 00:08:14;;;;;;;75.10;36.60;;;;;;;1.62;49.69;101961.77;105647;1274;25210;-57
2022/03/23 00:10:46;;;;;;;77.90;32.80;;;;;;;1.58;49.88;101961.80;105595;1275;24334;-58
2022/03/23 00:13:18;;;;;;;75.30;32.70;;;;;;;1.53;49.94;101958.37;105694;1274;24315;-55
2022/03/23 00:15:50;;;;;;;70.70;31.40;;;;;;;1.49;50.08;101957.85;105608;1274;22605;-58
2022/03/23 00:18:22;;;;;;;71.90;30.50;;;;;;;1.46;50.28;101956.23;105641;1274;22706;-56
2022/03/23 00:20:54;;;;;;;64.70;27.40;;;;;;;1.41;50.17;101950.75;105685;1276;22617;-57
2022/03/23 00:23:26;;;;;;;64.10;27.90;;;;;;;1.38;50.69;101947.58;105634;1274;22624;-53
2022/03/23 00:25:59;;;;;;;66.60;30.50;;;;;;;1.34;50.66;101949.73;105633;1274;22633;-57
2022/03/23 00:28:31;;;;;;;55.70;26.80;;;;;;;1.31;50.51;101947.58;105702;1275;22559;-57
2022/03/23 00:31:02;;;;;;;65.50;29.70;;;;;;;1.27;50.70;101941.23;105533;1274;22563;-57
2022/03/23 00:33:35;;;;;;;70.30;30.70;;;;;;;1.24;50.82;101938.98;105647;1275;24318;-57
2022/03/23 00:36:09;;;;;;;62.70;29.30;;;;;;;1.20;50.92;101932.58;105546;1275;24332;-56
2022/03/23 00:38:40;;;;;;;74.80;31.40;;;;;;;1.17;51.02;101931.91;105595;1275;22538;-54
2022/03/23 00:41:12;;;;;;;77.20;35.00;;;;;;;1.15;51.34;101929.61;105543;1275;23048;-55
2022/03/23 00:43:44;;;;;;;78.60;35.30;;;;;;;1.12;51.44;101930.04;105483;1274;22557;-54
2022/03/23 00:46:16;;;;;;;82.40;36.00;;;;;;;1.08;51.57;101928.25;105553;1273;22837;-55
2022/03/23 00:48:48;;;;;;;80.10;36.90;;;;;;;1.05;51.57;101922.78;105555;1274;24317;-56
2022/03/23 00:51:19;;;;;;;84.80;37.30;;;;;;;1.02;51.85;101920.55;105474;1276;22577;-56
2022/03/23 00:53:51;;;;;;;82.90;37.60;;;;;;;0.98;51.88;101921.21;105736;1275;22623;-57
2022/03/23 00:56:22;;;;;;;88.40;37.20;;;;;;;0.96;51.81;101917.34;105500;1274;24243;-57
2022/03/23 00:58:55;;;;;;;80.00;35.80;;;;;;;0.94;51.71;101918.48;105655;1274;24390;-56
2022/03/23 01:01:29;;;;;;;81.80;36.80;;;;;;;0.92;51.70;101914.85;105669;1275;22726;-56
2022/03/23 01:04:00;;;;;;;83.70;36.20;;;;;;;0.89;51.76;101912.45;105557;1275;24319;-57
2022/03/23 01:06:32;;;;;;;81.20;35.40;;;;;;;0.87;51.89;101911.50;105516;1276;22599;-57
2022/03/23 01:09:03;;;;;;;90.30;40.10;;;;;;;0.86;52.12;101902.45;105823;1276;25733;-57
2022/03/23 01:11:36;;;;;;;86.50;38.80;;;;;;;0.85;52.28;101905.65;105552;1274;22577;-57
2022/03/23 01:14:08;;;;;;;82.50;37.60;;;;;;;0.83;52.53;101900.44;105576;1275;24026;-56
2022/03/23 01:16:39;;;;;;;79.90;37.30;;;;;;;0.80;52.31;101896.63;105751;1274;22548;-55
2022/03/23 01:19:11;;;;;;;78.20;36.40;;;;;;;0.79;52.27;101891.75;105469;1274;25542;-56
2022/03/23 01:21:43;;;;;;;83.70;38.50;;;;;;;0.79;52.31;101891.60;105585;1275;25561;-55
2022/03/23 01:24:15;;;;;;;81.70;36.40;;;;;;;0.78;52.40;101891.97;105615;1274;24367;-58
2022/03/23 01:26:46;;;;;;;83.00;40.10;;;;;;;0.75;52.69;101887.45;105589;1274;24302;-56
2022/03/23 01:29:18;;;;;;;91.30;39.00;;;;;;;0.71;52.80;101882.30;105508;1274;25581;-57
2022/03/23 01:31:49;;;;;;;80.70;37.30;;;;;;;0.66;52.60;101883.56;105540;1274;22676;-56
2022/03/23 01:34:21;;;;;;;85.90;39.50;;;;;;;0.63;52.60;101880.54;105560;1274;22850;-57
2022/03/23 01:36:52;;;;;;;83.40;39.50;;;;;;;0.58;53.07;101881.80;105675;1274;26833;-57
2022/03/23 01:39:23;;;;;;;82.40;39.40;;;;;;;0.51;52.99;101883.50;105686;1274;22552;-56
2022/03/23 01:41:55;;;;;;;78.40;36.20;;;;;;;0.44;53.05;101881.83;105279;1274;423595;-55
2022/03/23 01:44:27;;;;;;;84.70;38.50;;;;;;;0.38;52.93;101882.62;105562;1275;25590;-56
2022/03/23 01:47:07;;;;;;;81.60;37.50;;;;;;;0.35;53.11;101881.85;105580;1276;25487;-57
2022/03/23 01:49:43;;;;;;;79.80;37.30;;;;;;;0.31;53.15;101879.98;105654;1274;25540;-56
2022/03/23 01:52:16;;;;;;;88.40;39.10;;;;;;;0.26;53.26;101876.70;105541;1274;25569;-54
2022/03/23 01:54:48;;;;;;;85.90;38.60;;;;;;;0.22;53.30;101875.22;105575;1274;22686;-55
2022/03/23 01:57:21;;;;;;;82.20;38.70;;;;;;;0.16;53.51;101879.52;105636;1274;23343;-56
2022/03/23 01:59:53;;;;;;;77.30;37.90;;;;;;;0.11;53.58;101874.89;105589;1274;22630;-54
2022/03/23 02:02:25;;;;;;;79.00;37.10;;;;;;;0.06;53.66;101874.02;105520;1274;22631;-54
2022/03/23 02:04:56;;;;;;;80.10;36.20;;;;;;;-0.01;53.80;101873.46;105546;1275;25569;-56
2022/03/23 02:07:27;;;;;;;82.90;36.70;;;;;;;-0.07;53.97;101876.16;105524;1274;22665;-57
2022/03/23 02:10:00;;;;;;;73.30;35.00;;;;;;;-0.14;54.26;101874.02;105574;1274;22542;-54
2022/03/23 02:12:32;;;;;;;83.70;35.30;;;;;;;-0.22;54.55;101874.42;105544;1274;22779;-56
2022/03/23 02:15:14;;;;;;;68.70;30.50;;;;;;;-0.31;54.90;101873.26;105574;1275;22645;-54
2022/03/23 02:17:46;;;;;;;64.10;25.80;;;;;;;-0.43;55.60;101877.51;105771;1274;24384;-56
2022/03/23 02:20:18;;;;;;;62.10;26.30;;;;;;;-0.60;56.25;101879.31;105581;1275;22484;-56
2022/03/23 02:22:50;;;;;;;61.00;27.70;;;;;;;-0.76;56.63;101879.95;105868;1274;22732;-55
2022/03/23 02:25:25;;;;;;;69.90;27.50;;;;;;;-0.93;56.56;101883.38;105502;1275;22824;-55
2022/03/23 02:27:57;;;;;;;69.10;28.30;;;;;;;-1.10;56.53;101882.96;105609;1274;22719;-57
2022/03/23 02:30:28;;;;;;;63.40;26.70;;;;;;;-1.26;56.94;101879.11;105645;1274;22707;-54
2022/03/23 02:33:01;;;;;;;69.00;31.30;;;;;;;-1.40;56.99;101881.15;105742;1275;24387;-57
2022/03/23 02:35:33;;;;;;;73.00;31.60;;;;;;;-1.45;57.04;101880.58;105719;1274;24803;-57
2022/03/23 02:38:04;;;;;;;68.40;28.90;;;;;;;-1.46;57.23;101883.13;105741;1274;25685;-54
2022/03/23 02:40:36;;;;;;;68.30;29.80;;;;;;;-1.46;57.25;101882.44;105665;1274;24268;-57
2022/03/23 02:43:07;;;;;;;74.30;33.70;;;;;;;-1.45;57.22;101884.86;105709;1275;25152;-56
2022/03/23 02:45:39;;;;;;;74.60;32.10;;;;;;;-1.42;57.47;101883.83;105639;1274;22803;-56
2022/03/23 02:48:12;;;;;;;80.10;34.80;;;;;;;-1.39;57.55;101885.10;105733;1274;23277;-57
2022/03/23 02:50:43;;;;;;;88.60;34.90;;;;;;;-1.34;57.54;101887.55;105592;1274;22802;-56
2022/03/23 03:02:00;;;;;;;82.70;35.80;;;;;;;-1.19;57.39;101884.73;105447;1274;22651;-56
2022/03/23 03:04:32;;;;;;;81.50;36.30;;;;;;;-1.19;57.33;101885.36;105582;1274;24437;-57
2022/03/23 03:07:04;;;;;;;83.50;35.20;;;;;;;-1.19;57.20;101880.89;105557;1274;22844;-53
2022/03/23 03:09:35;;;;;;;77.30;34.30;;;;;;;-1.19;57.12;101878.14;105569;1276;22711;-56
2022/03/23 03:12:10;;;;;;;78.60;34.80;;;;;;;-1.17;57.04;101878.73;105588;1275;22781;-56
2022/03/23 03:14:42;;;;;;;76.40;34.00;;;;;;;-1.15;56.90;101877.45;105704;1274;24384;-56
2022/03/23 03:17:13;;;;;;;78.20;35.50;;;;;;;-1.13;56.65;101878.52;105544;1275;24268;-54
2022/03/23 03:19:45;;;;;;;98.80;40.10;;;;;;;-1.12;57.23;101883.47;105631;1274;22688;-54
2022/03/23 03:22:17;;;;;;;88.20;39.30;;;;;;;-1.16;57.27;101879.64;105651;1274;22658;-56
2022/03/23 03:24:48;;;;;;;88.70;38.10;;;;;;;-1.18;57.25;101883.27;105673;1274;22627;-54
2022/03/23 03:27:21;;;;;;;88.10;37.70;;;;;;;-1.22;57.34;101878.72;105529;1275;22656;-56
2022/03/23 03:29:52;;;;;;;87.90;38.20;;;;;;;-1.26;57.19;101884.50;105626;1274;22758;-56
2022/03/23 03:32:23;;;;;;;86.50;36.30;;;;;;;-1.27;57.19;101881.66;105530;1276;22688;-55
2022/03/23 03:34:56;;;;;;;87.70;36.70;;;;;;;-1.27;57.05;101885.11;105591;1274;22686;-56
2022/03/23 03:37:27;;;;;;;79.20;36.70;;;;;;;-1.27;56.97;101882.44;105548;1274;22591;-57
2022/03/23 03:39:59;;;;;;;86.90;38.60;;;;;;;-1.28;57.14;101878.36;105804;1274;22655;-55
2022/03/23 03:42:30;;;;;;;97.10;40.30;;;;;;;-1.29;57.01;101878.26;105620;1274;24394;-55
2022/03/23 03:45:02;;;;;;;92.20;41.20;;;;;;;-1.30;57.38;101878.77;105776;1274;22640;-56
2022/03/23 03:47:34;;;;;;;90.30;41.00;;;;;;;-1.31;57.66;101878.91;105708;1276;22669;-55
2022/03/23 03:50:08;;;;;;;89.60;41.40;;;;;;;-1.32;57.67;101871.92;105781;1276;22693;-57
2022/03/23 03:52:41;;;;;;;87.80;40.70;;;;;;;-1.32;57.96;101870.52;105580;1274;25598;-55
2022/03/23 03:55:12;;;;;;;92.60;41.20;;;;;;;-1.34;58.23;101868.13;105652;1274;22690;-57
2022/03/23 03:57:44;;;;;;;95.90;39.30;;;;;;;-1.35;57.68;101870.84;105641;1274;22645;-57
2022/03/23 04:00:17;;;;;;;89.40;39.60;;;;;;;-1.32;57.77;101865.52;105684;1274;25565;-57
2022/03/23 04:02:48;;;;;;;92.90;43.00;;;;;;;-1.30;57.84;101867.27;105682;1274;22672;-56
2022/03/23 04:05:20;;;;;;;93.50;41.30;;;;;;;-1.26;57.87;101857.33;105612;1274;22758;-54
2022/03/23 04:07:51;;;;;;;92.70;43.50;;;;;;;-1.22;57.98;101859.61;105572;1274;22689;-55
2022/03/23 04:10:24;;;;;;;98.70;44.20;;;;;;;-1.21;58.39;101856.59;105569;1274;22651;-54
2022/03/23 04:12:57;;;;;;;96.30;44.10;;;;;;;-1.23;58.53;101859.91;105576;1274;24658;-55
2022/03/23 04:15:28;;;;;;;97.90;43.10;;;;;;;-1.23;58.69;101864.38;105561;1274;22793;-55
2022/03/23 04:17:59;;;;;;;99.00;44.10;;;;;;;-1.24;58.50;101864.42;105581;1274;23283;-56
2022/03/23 04:20:32;;;;;;;88.30;41.60;;;;;;;-1.26;58.35;101862.12;105661;1274;25575;-56
2022/03/23 04:23:03;;;;;;;91.30;42.10;;;;;;;-1.27;58.42;101864.36;105550;1274;23055;-53
2022/03/23 04:25:35;;;;;;;95.30;41.10;;;;;;;-1.30;58.36;101861.09;105546;1274;25569;-55
2022/03/23 04:28:07;;;;;;;87.60;41.20;;;;;;;-1.33;58.60;101859.05;105540;1275;22583;-56
2022/03/23 04:30:39;;;;;;;88.80;42.70;;;;;;;-1.42;58.51;101864.91;105578;1274;22676;-55
2022/03/23 04:33:10;;;;;;;92.20;41.00;;;;;;;-1.48;59.27;101863.83;105534;1274;25735;-56
2022/03/23 04:35:42;;;;;;;95.30;44.70;;;;;;;-1.59;59.09;101865.85;105562;1274;26611;-57
2022/03/23 04:38:13;;;;;;;97.40;41.50;;;;;;;-1.73;59.07;101867.20;105521;1274;22939;-57
2022/03/23 04:40:45;;;;;;;100.60;41.50;;;;;;;-1.81;58.91;101865.98;105630;1274;24263;-56
2022/03/23 04:43:16;;;;;;;96.90;42.70;;;;;;;-1.84;58.85;101864.73;105613;1275;23015;-56
2022/03/23 04:45:47;;;;;;;90.20;40.70;;;;;;;-1.84;58.54;101863.88;105610;1274;25650;-55
2022/03/23 04:48:19;;;;;;;95.20;40.80;;;;;;;-1.85;58.92;101870.10;105469;1274;22684;-55
2022/03/23 04:50:50;;;;;;;97.00;42.50;;;;;;;-1.90;59.00;101872.17;105430;1274;25634;-54
2022/03/23 04:53:22;;;;;;;92.20;40.10;;;;;;;-1.97;59.05;101872.40;105618;1274;22587;-56
2022/03/23 04:55:54;;;;;;;100.40;41.30;;;;;;;-2.01;59.09;101872.38;105553;1274;22694;-57
2022/03/23 04:58:25;;;;;;;106.60;43.40;;;;;;;-2.05;59.26;101874.16;105683;1274;25612;-57
2022/03/23 05:00:58;;;;;;;95.90;40.50;;;;;;;-2.09;59.28;101869.84;105759;1274;24233;-58
2022/03/23 05:03:30;;;;;;;91.20;41.90;;;;;;;-2.10;59.41;101874.42;105729;1274;22615;-55
2022/03/23 05:06:02;;;;;;;93.00;41.30;;;;;;;-2.14;60.13;101879.79;105543;1274;27327;-58
2022/03/23 05:08:33;;;;;;;90.60;39.60;;;;;;;-2.24;61.34;101882.90;105827;1274;23044;-55
2022/03/23 05:11:05;;;;;;;94.40;41.30;;;;;;;-2.41;61.17;101882.48;105624;1274;22700;-55
2022/03/23 05:13:36;;;;;;;89.80;40.70;;;;;;;-2.47;61.23;101881.73;105736;1274;22637;-55
2022/03/23 05:16:08;;;;;;;99.90;43.00;;;;;;;-2.47;61.28;101884.05;105675;1274;26781;-58
2022/03/23 05:18:41;;;;;;;98.30;41.60;;;;;;;-2.45;61.16;101876.29;105694;1274;23477;-55
2022/03/23 05:21:13;;;;;;;104.90;43.50;;;;;;;-2.40;61.24;101874.92;105965;1274;22715;-55
2022/03/23 05:23:45;;;;;;;93.10;41.90;;;;;;;-2.36;60.63;101876.91;105727;1274;22732;-55
2022/03/23 05:26:17;;;;;;;100.40;43.10;;;;;;;-2.30;60.47;101872.92;105675;1274;25460;-55
2022/03/23 05:28:49;;;;;;;90.20;39.60;;;;;;;-2.23;60.66;101871.60;105638;1274;25558;-54
2022/03/23 05:31:23;;;;;;;94.00;42.00;;;;;;;-2.16;60.42;101866.39;105702;1274;22671;-57
2022/03/23 05:33:54;;;;;;;89.30;39.40;;;;;;;-2.09;60.28;101870.09;105665;1274;23626;-59
2022/03/23 05:36:26;;;;;;;97.90;43.70;;;;;;;-2.03;60.27;101866.32;105689;1274;22602;-58
2022/03/23 05:38:59;;;;;;;95.30;41.60;;;;;;;-1.97;60.33;101873.65;105696;1274;22582;-55
2022/03/23 05:41:30;;;;;;;99.20;45.40;;;;;;;-1.91;60.43;101874.73;105800;1274;24259;-57
2022/03/23 05:44:02;;;;;;;106.20;47.20;;;;;;;-1.87;60.63;101875.92;105863;1274;24387;-58
2022/03/23 05:46:34;;;;;;;116.80;52.60;;;;;;;-1.83;60.85;101873.75;105776;1274;22747;-60
2022/03/23 05:49:06;;;;;;;126.90;56.10;;;;;;;-1.81;60.87;101876.08;105656;1274;22557;-56
2022/03/23 05:51:37;;;;;;;112.00;51.20;;;;;;;-1.77;60.97;101871.95;105906;1274;23526;-56
2022/03/23 05:54:11;;;;;;;114.20;50.70;;;;;;;-1.74;60.85;101867.63;105602;1274;25542;-56
2022/03/23 05:56:43;;;;;;;111.10;48.80;;;;;;;-1.71;61.51;101869.66;105787;1275;22826;-55
2022/03/23 05:59:15;;;;;;;110.70;50.00;;;;;;;-1.68;61.47;101866.98;106369;1274;24246;-52
2022/03/23 06:01:47;;;;;;;100.10;46.80;;;;;;;-1.64;62.10;101866.61;105648;1275;25625;-54
2022/03/23 06:04:18;;;;;;;114.00;47.50;;;;;;;-1.59;62.34;101871.49;105641;1276;27747;-54
2022/03/23 06:06:50;;;;;;;98.80;46.00;;;;;;;-1.53;62.44;101871.31;105689;1274;22790;-56
2022/03/23 06:09:21;;;;;;;109.90;46.70;;;;;;;-1.46;62.49;101876.47;105696;1274;22588;-57
2022/03/23 06:11:53;;;;;;;96.90;45.40;;;;;;;-1.39;62.71;101875.45;105667;1274;22953;-57
2022/03/23 06:14:25;;;;;;;110.60;48.20;;;;;;;-1.31;62.61;101877.89;105664;1274;24477;-57
2022/03/23 06:16:57;;;;;;;122.60;56.20;;;;;;;-1.22;63.10;101876.53;105540;1276;24395;-56
2022/03/23 06:19:28;;;;;;;122.50;51.90;;;;;;;-1.14;63.05;101874.11;105703;1274;24866;-58
2022/03/23 06:22:00;;;;;;;108.60;47.20;;;;;;;-1.05;63.06;101872.02;105933;1274;22870;-66
2022/03/23 06:24:32;;;;;;;115.60;48.80;;;;;;;-0.95;63.35;101871.59;106130;1274;25709;-58
2022/03/23 06:27:04;;;;;;;107.70;47.80;;;;;;;-0.84;63.52;101873.94;106214;1274;24218;-58
2022/03/23 06:29:35;;;;;;;120.50;52.10;;;;;;;-0.73;63.58;101875.48;106177;1274;24130;-57
2022/03/23 06:32:08;;;;;;;122.90;53.10;;;;;;;-0.62;63.98;101874.41;106153;1274;22715;-59
2022/03/23 06:34:40;;;;;;;111.90;51.50;;;;;;;-0.50;64.15;101869.86;106210;1274;22841;-59
2022/03/23 06:37:12;;;;;;;119.40;51.70;;;;;;;-0.36;64.17;101873.80;106336;1274;26997;-55
2022/03/23 06:39:43;;;;;;;107.20;51.50;;;;;;;-0.24;64.31;101874.64;106164;1274;24370;-56
2022/03/23 06:42:15;;;;;;;115.10;52.90;;;;;;;-0.12;64.27;101876.72;106232;1274;22683;-55
2022/03/23 06:44:47;;;;;;;120.10;54.70;;;;;;;0.02;64.51;101870.59;106219;1274;22712;-59
2022/03/23 06:47:18;;;;;;;117.30;53.70;;;;;;;0.17;64.35;101871.30;106182;1274;22836;-57
2022/03/23 06:49:50;;;;;;;118.20;52.00;;;;;;;0.29;64.22;101874.38;106140;1274;22589;-58
2022/03/23 06:52:21;;;;;;;117.40;50.60;;;;;;;0.44;64.22;101869.66;106304;1274;22751;-56
2022/03/23 06:54:54;;;;;;;123.40;54.80;;;;;;;0.59;64.19;101872.00;106359;1273;23447;-57
2022/03/23 06:57:26;;;;;;;127.50;55.80;;;;;;;0.83;64.48;101874.36;106182;1274;26337;-57
2022/03/23 06:59:57;;;;;;;102.70;50.20;;;;;;;1.08;63.77;101872.53;106354;1273;22690;-56
2022/03/23 07:02:29;;;;;;;107.60;49.50;;;;;;;1.25;63.56;101870.15;106589;1274;22880;-53
2022/03/23 07:05:00;;;;;;;95.40;47.00;;;;;;;1.40;63.56;101869.29;106268;1274;22764;-56
2022/03/23 07:07:32;;;;;;;92.30;44.00;;;;;;;1.58;63.50;101866.01;106226;1274;25610;-54
2022/03/23 07:10:04;;;;;;;98.10;45.20;;;;;;;1.75;63.24;101866.80;106235;1275;24245;-57
2022/03/23 07:12:37;;;;;;;95.50;44.30;;;;;;;1.92;62.95;101876.09;106232;1274;25988;-58
2022/03/23 07:15:09;;;;;;;90.30;43.80;;;;;;;2.08;62.56;101878.49;106195;1274;24151;-56
2022/03/23 07:17:41;;;;;;;97.90;47.20;;;;;;;2.19;62.43;101876.20;106300;1274;22863;-56
2022/03/23 07:20:14;;;;;;;93.90;47.10;;;;;;;2.27;62.35;101878.80;106493;1274;22556;-56
2022/03/23 07:22:46;;;;;;;93.30;45.40;;;;;;;2.40;62.24;101880.77;106227;1274;25735;-56
2022/03/23 07:25:19;;;;;;;92.60;45.60;;;;;;;2.47;62.30;101878.67;106237;1274;25544;-56
2022/03/23 07:27:52;;;;;;;89.30;45.70;;;;;;;2.58;62.34;101874.03;106288;1274;24409;-58
2022/03/23 07:30:28;;;;;;;95.00;46.50;;;;;;;2.68;62.12;101871.88;106187;1276;22747;-57
2022/03/23 07:33:01;;;;;;;94.70;47.80;;;;;;;2.80;62.20;101873.76;106249;1274;22702;-54
2022/03/23 07:35:33;;;;;;;95.10;45.30;;;;;;;2.93;61.97;101873.50;106298;1274;26094;-58
2022/03/23 07:38:05;;;;;;;92.00;43.90;;;;;;;3.04;61.99;101872.13;106282;1274;24052;-58
2022/03/23 07:40:37;;;;;;;83.60;43.20;;;;;;;3.18;61.70;101868.23;106143;1274;22520;-57
2022/03/23 07:43:08;;;;;;;98.30;46.80;;;;;;;3.29;61.58;101869.36;106262;1274;22537;-55
2022/03/23 07:45:42;;;;;;;89.70;44.60;;;;;;;3.43;61.63;101869.56;106095;1274;22716;-57
2022/03/23 07:48:15;;;;;;;85.00;44.30;;;;;;;3.55;61.46;101864.92;106154;1276;22711;-55
2022/03/23 07:50:47;;;;;;;81.30;42.40;;;;;;;3.68;61.25;101865.10;106196;1274;24248;-57
2022/03/23 07:53:21;;;;;;;84.10;41.90;;;;;;;3.86;61.27;101861.73;106199;1274;22694;-55
2022/03/23 07:55:52;;;;;;;79.10;38.70;;;;;;;4.09;60.95;101863.94;106134;1274;22542;-58
2022/03/23 07:58:25;;;;;;;81.40;42.60;;;;;;;4.34;60.66;101864.92;106858;1274;22551;-59
2022/03/23 08:00:57;;;;;;;81.00;41.00;;;;;;;4.53;60.42;101862.84;106994;1274;25265;-57
2022/03/23 08:03:29;;;;;;;82.10;41.70;;;;;;;4.66;59.92;101855.39;106211;1274;22487;-55
2022/03/23 08:06:01;;;;;;;75.30;41.60;;;;;;;4.85;59.75;101856.89;106428;1274;25770;-56
2022/03/23 08:08:34;;;;;;;82.50;40.80;;;;;;;4.99;59.34;101857.95;106329;1274;26576;-54
2022/03/23 08:11:06;;;;;;;73.20;39.50;;;;;;;5.13;59.11;101856.94;106167;1274;22679;-55
2022/03/23 08:13:37;;;;;;;83.00;40.10;;;;;;;5.24;58.99;101853.09;106235;1274;23201;-57
2022/03/23 08:16:09;;;;;;;73.90;36.80;;;;;;;5.41;58.84;101851.02;106221;1274;24217;-57
2022/03/23 08:18:41;;;;;;;73.80;35.50;;;;;;;5.60;58.54;101848.67;106226;1274;22643;-57
2022/03/23 08:21:13;;;;;;;70.80;36.50;;;;;;;5.80;58.22;101850.98;106203;1274;24403;-56
2022/03/23 08:23:45;;;;;;;70.10;34.60;;;;;;;6.01;58.01;101845.94;106241;1274;22567;-57
2022/03/23 08:26:18;;;;;;;69.10;35.50;;;;;;;6.21;57.77;101841.48;106144;1274;22592;-56
2022/03/23 08:28:50;;;;;;;70.10;35.50;;;;;;;6.41;57.50;101843.63;106273;1274;25320;-55
2022/03/23 08:31:21;;;;;;;72.60;34.60;;;;;;;6.54;57.15;101846.36;106266;1274;22506;-55
2022/03/23 08:33:53;;;;;;;68.70;34.40;;;;;;;6.66;57.01;101850.91;106278;1274;23657;-57
2022/03/23 08:36:24;;;;;;;63.20;32.10;;;;;;;6.79;56.68;101847.91;106234;1274;22561;-56
2022/03/23 08:38:56;;;;;;;66.50;34.50;;;;;;;6.95;56.36;101844.21;106180;1274;22545;-57
2022/03/23 08:41:30;;;;;;;64.20;31.40;;;;;;;7.09;55.87;101839.83;106229;1274;22578;-58
2022/03/23 08:44:02;;;;;;;63.70;32.50;;;;;;;7.27;55.50;101840.21;106260;1274;22675;-59
2022/03/23 08:46:34;;;;;;;66.90;34.40;;;;;;;7.44;55.34;101842.30;106182;1274;22578;-57
2022/03/23 08:49:06;;;;;;;54.00;29.00;;;;;;;7.53;55.20;101838.90;106183;1274;22575;-57
2022/03/23 08:51:37;;;;;;;59.60;32.90;;;;;;;7.65;54.51;101836.80;106074;1274;22537;-57
2022/03/23 08:54:09;;;;;;;63.50;30.50;;;;;;;7.76;54.40;101834.26;105970;1273;24913;-58
2022/03/23 08:56:41;;;;;;;55.20;29.70;;;;;;;7.86;54.22;101830.26;106145;1274;23162;-57
2022/03/23 08:59:12;;;;;;;63.40;29.20;;;;;;;8.01;53.64;101832.64;106319;1274;22606;-57
2022/03/23 09:01:44;;;;;;;58.70;28.90;;;;;;;8.20;53.46;101832.95;106213;1274;25137;-56
2022/03/23 09:04:16;;;;;;;53.10;26.00;;;;;;;8.33;53.17;101824.98;106322;1274;22691;-54
2022/03/23 09:06:50;;;;;;;53.70;27.40;;;;;;;8.49;52.73;101824.10;106310;1263;25638;-58
2022/03/23 09:09:22;;;;;;;59.50;28.60;;;;;;;8.66;52.29;101823.92;105820;1274;25237;-60
2022/03/23 09:11:53;;;;;;;56.50;27.30;;;;;;;8.79;51.99;101821.43;105919;1274;24244;-61
2022/03/23 09:14:25;;;;;;;50.00;23.80;;;;;;;8.90;51.68;101818.73;105910;1274;22762;-59
2022/03/23 09:28:36;;;;;;;51.70;23.60;;;;;;;9.39;49.59;101800.36;102996;1309;545484;-77
2022/03/23 09:31:08;;;;;;;49.40;24.30;;;;;;;9.46;49.49;101795.90;106015;1277;25347;-77
2022/03/23 09:33:42;;;;;;;57.80;26.40;;;;;;;9.56;49.19;101789.46;106054;1277;24279;-77
2022/03/23 09:39:03;;;;;;;64.80;29.80;;;;;;;9.82;49.02;101784.21;105923;1276;24754;-76
2022/03/23 09:41:35;;;;;;;53.10;26.20;;;;;;;9.90;48.69;101785.52;105837;1276;205261;-76
2022/03/23 09:44:10;;;;;;;57.60;29.70;;;;;;;10.03;48.26;101783.52;106085;1274;22563;-75
2022/03/23 09:46:42;;;;;;;60.50;30.40;;;;;;;10.19;48.22;101780.95;106259;1274;22584;-77
2022/03/23 09:49:15;;;;;;;65.60;30.80;;;;;;;10.32;48.02;101774.85;106070;1274;23432;-76
2022/03/23 09:51:51;;;;;;;65.80;29.60;;;;;;;10.45;47.72;101773.15;106143;1273;25231;-76
2022/03/23 09:54:23;;;;;;;52.80;27.80;;;;;;;10.57;47.31;101769.45;106083;1274;24378;-77
2022/03/23 09:56:54;;;;;;;62.80;30.20;;;;;;;10.71;47.32;101766.65;106137;1276;24150;-77
2022/03/23 09:59:25;;;;;;;63.30;29.80;;;;;;;10.83;46.89;101760.06;106075;1274;22834;-76
2022/03/23 10:02:26;;;;;;;55.90;28.40;;;;;;;10.95;46.62;101758.27;106109;1274;22647;-76
2022/03/23 10:05:22;;;;;;;;;;;;;;;11.15;46.13;101755.65;106108;1275;24390;-76
2022/03/23 10:08:03;;;;;;;57.60;25.50;;;;;;;11.41;45.57;101753.08;106096;1274;25931;-77
2022/03/23 10:11:26;;;;;;;51.10;27.00;;;;;;;11.59;45.12;101753.52;106068;1274;25348;-76
2022/03/23 10:14:33;;;;;;;50.20;25.20;;;;;;;11.71;44.75;101751.86;106781;1267;22550;-76
2022/03/23 10:17:37;;;;;;;51.10;22.50;;;;;;;11.97;43.62;101746.58;106485;1271;22532;-76
2022/03/23 10:20:14;;;;;;;52.00;23.10;;;;;;;12.23;43.07;101745.19;106264;1270;22825;-76
2022/03/23 10:22:53;;;;;;;51.80;23.50;;;;;;;12.40;43.11;101745.04;106488;1271;22539;-75
2022/03/23 10:25:28;;;;;;;47.20;21.80;;;;;;;12.46;42.86;101741.69;106379;1270;24187;-76
2022/03/23 10:28:01;;;;;;;44.70;21.80;;;;;;;12.54;42.47;101739.88;106376;1270;23200;-76
2022/03/23 10:30:39;;;;;;;42.90;20.00;;;;;;;12.61;41.46;101739.30;106335;1270;22532;-77
2022/03/23 10:33:22;;;;;;;46.00;20.70;;;;;;;12.78;40.75;101730.10;106309;1271;25332;-76
2022/03/23 10:35:55;;;;;;;43.80;20.60;;;;;;;12.95;40.65;101730.78;106374;1271;24375;-76
2022/03/23 10:38:28;;;;;;;43.30;20.20;;;;;;;13.10;40.42;101723.18;106335;1271;25320;-76
2022/03/23 10:41:12;;;;;;;38.20;18.20;;;;;;;13.23;40.15;101718.48;106340;1270;22697;-79
2022/03/23 10:43:43;;;;;;;40.90;19.80;;;;;;;13.49;39.32;101716.31;106320;1271;22656;-76
2022/03/23 10:46:15;;;;;;;37.00;17.50;;;;;;;13.63;38.95;101712.48;106350;1271;22736;-77
2022/03/23 10:48:59;;;;;;;38.40;17.70;;;;;;;13.82;38.76;101707.92;106262;1273;22542;-76
2022/03/23 10:51:33;;;;;;;37.30;17.70;;;;;;;14.06;37.96;101702.45;106457;1271;22592;-76
2022/03/23 10:54:18;;;;;;;36.20;18.20;;;;;;;14.24;38.13;101697.66;106526;1267;23967;-77
2022/03/23 10:56:49;;;;;;;36.10;17.40;;;;;;;14.30;37.38;101692.64;106708;1267;24040;-77
2022/03/23 10:59:26;;;;;;;35.10;16.90;;;;;;;14.36;37.11;101686.23;106853;1267;25298;-77
2022/03/23 11:02:09;;;;;;;38.30;16.80;;;;;;;14.40;37.02;101682.05;106948;1266;27043;-77
2022/03/23 11:04:51;;;;;;;29.40;14.60;;;;;;;14.52;36.26;101680.64;106963;1267;23198;-77
2022/03/23 11:07:29;;;;;;;30.20;14.00;;;;;;;14.70;35.93;101674.66;107360;1265;25869;-77
2022/03/23 11:15:49;;;;;;;27.30;12.20;;;;;;;15.15;34.17;101666.07;106727;1267;22518;-77
2022/03/23 11:18:22;;;;;;;27.30;11.30;;;;;;;15.27;34.34;101660.24;106730;1267;26018;-76
2022/03/23 11:20:55;;;;;;;21.50;6.70;;;;;;;15.37;33.36;101658.94;106741;1267;25243;-76
2022/03/23 11:23:31;;;;;;;15.00;5.30;;;;;;;15.56;32.86;101657.85;106732;1267;22525;-76
2022/03/23 11:26:05;;;;;;;15.50;5.50;;;;;;;15.76;32.22;101646.96;106791;1267;24208;-76
2022/03/23 11:28:38;;;;;;;16.60;4.80;;;;;;;15.96;31.45;101643.98;106867;1267;24220;-77
2022/03/23 11:31:12;;;;;;;15.40;5.20;;;;;;;16.12;31.13;101637.95;106815;1267;22523;-76
2022/03/23 11:33:48;;;;;;;21.00;8.80;;;;;;;16.28;31.09;101636.42;106758;1267;23251;-77
2022/03/23 11:36:20;;;;;;;17.80;7.10;;;;;;;16.40;31.32;101633.52;106768;1267;24041;-77
2022/03/23 11:38:54;;;;;;;21.00;7.10;;;;;;;16.47;31.30;101625.48;106711;1267;25473;-77
2022/03/23 11:41:25;;;;;;;21.30;6.40;;;;;;;16.51;30.56;101620.98;106668;1267;22778;-77
2022/03/23 11:43:57;;;;;;;20.10;7.40;;;;;;;16.61;29.65;101613.75;106764;1267;25408;-74
2022/03/23 11:46:29;;;;;;;22.30;7.20;;;;;;;16.66;30.04;101608.77;106716;1267;24214;-77
2022/03/23 11:49:13;;;;;;;18.50;7.00;;;;;;;16.74;29.94;101606.95;106757;1266;24136;-76
2022/03/23 11:52:05;;;;;;;12.80;4.30;;;;;;;16.82;29.39;101603.64;106809;1267;24368;-77
2022/03/23 11:58:10;;;;;;;16.70;5.30;;;;;;;17.16;28.46;101597.56;106749;1267;22614;-77
2022/03/23 12:00:44;;;;;;;17.70;5.60;;;;;;;17.31;28.20;101595.71;106740;1267;26052;-77
2022/03/23 12:03:35;;;;;;;15.40;5.10;;;;;;;17.37;27.82;101590.20;106719;1267;23090;-77